createdAt,value
2023-09-23T00:00:13.992Z,15.41
2023-09-23T00:02:44.722Z,15.32
2023-09-23T00:05:20.836Z,15.34
2023-09-23T00:07:51.448Z,15.31
2023-09-23T00:10:22.061Z,15.31
2023-09-23T00:12:51.807Z,15.35
2023-09-23T00:15:21.993Z,15.23
2023-09-23T00:17:55.210Z,15.32
2023-09-23T00:20:28.711Z,15.28
2023-09-23T00:22:58.724Z,15.17
2023-09-23T00:25:28.373Z,15.19
2023-09-23T00:27:58.161Z,15.13
2023-09-23T00:30:27.997Z,15.04
2023-09-23T00:32:57.756Z,15.04
2023-09-23T00:35:30.311Z,15.07
2023-09-23T00:38:00.198Z,14.99
2023-09-23T00:40:33.657Z,15.06
2023-09-23T00:43:13.129Z,14.92
2023-09-23T00:45:50.306Z,14.98
2023-09-23T00:48:23.055Z,15.02
2023-09-23T00:50:58.102Z,15.09
2023-09-23T00:53:30.684Z,14.93
2023-09-23T00:56:02.367Z,14.87
2023-09-23T00:58:32.314Z,14.78
2023-09-23T01:01:02.569Z,14.83
2023-09-23T01:03:32.488Z,14.78
2023-09-23T01:06:10.288Z,14.81
2023-09-23T01:08:40.367Z,14.84
2023-09-23T01:11:13.460Z,14.80
2023-09-23T01:13:44.564Z,14.71
2023-09-23T01:16:17.364Z,14.63
2023-09-23T01:18:50.462Z,14.71
2023-09-23T01:21:25.037Z,14.66
2023-09-23T01:23:57.483Z,14.65
2023-09-23T01:26:27.334Z,14.55
2023-09-23T01:28:57.120Z,14.48
2023-09-23T01:31:30.821Z,14.45
2023-09-23T01:34:01.082Z,14.23
2023-09-23T01:36:32.991Z,14.25
2023-09-23T01:39:06.255Z,14.12
2023-09-23T01:41:36.040Z,14.11
2023-09-23T01:44:05.794Z,14.24
2023-09-23T01:46:36.539Z,14.12
2023-09-23T01:49:06.235Z,14.10
2023-09-23T01:51:35.894Z,14.12
2023-09-23T01:54:08.670Z,14.09
2023-09-23T01:56:38.536Z,14.06
2023-09-23T01:59:08.743Z,14.04
2023-09-23T02:01:41.350Z,14.05
2023-09-23T02:04:12.414Z,13.78
2023-09-23T02:06:44.403Z,13.92
2023-09-23T02:09:16.926Z,14.00
2023-09-23T02:11:46.814Z,13.95
2023-09-23T02:14:16.646Z,14.01
2023-09-23T02:16:48.496Z,14.07
2023-09-23T02:19:19.210Z,13.98
2023-09-23T02:21:49.090Z,13.99
2023-09-23T02:24:21.394Z,14.08
2023-09-23T02:26:51.254Z,14.00
2023-09-23T02:29:23.485Z,13.91
2023-09-23T02:31:53.320Z,14.17
2023-09-23T02:34:23.067Z,14.14
2023-09-23T02:36:53.271Z,14.17
2023-09-23T02:39:25.655Z,14.13
2023-09-23T02:41:55.431Z,14.21
2023-09-23T02:44:26.246Z,14.20
2023-09-23T02:46:56.626Z,14.18
2023-09-23T02:49:26.551Z,14.23
2023-09-23T02:51:56.215Z,14.11
2023-09-23T02:54:31.173Z,14.22
2023-09-23T02:57:04.543Z,13.99
2023-09-23T02:59:42.824Z,14.20
2023-09-23T03:02:21.637Z,14.10
2023-09-23T03:04:59.530Z,14.08
2023-09-23T03:07:36.152Z,14.05
2023-09-23T03:10:13.694Z,14.15
2023-09-23T03:12:52.585Z,14.04
2023-09-23T03:15:29.257Z,14.02
2023-09-23T03:18:01.379Z,14.01
2023-09-23T03:20:31.642Z,14.06
2023-09-23T03:23:01.340Z,14.04
2023-09-23T03:25:33.679Z,13.97
2023-09-23T03:28:03.643Z,14.02
2023-09-23T03:30:35.082Z,13.90
2023-09-23T03:33:04.959Z,13.95
2023-09-23T03:35:38.876Z,13.80
2023-09-23T03:38:09.435Z,13.76
2023-09-23T03:40:41.947Z,13.75
2023-09-23T03:43:13.603Z,13.96
2023-09-23T03:45:44.112Z,13.84
2023-09-23T03:48:14.123Z,13.91
2023-09-23T03:50:43.835Z,13.94
2023-09-23T03:53:13.753Z,13.79
2023-09-23T03:55:48.561Z,13.75
2023-09-23T03:58:21.380Z,13.77
2023-09-23T04:00:51.573Z,13.80
2023-09-23T04:03:21.664Z,13.74
2023-09-23T04:05:59.662Z,13.86
2023-09-23T04:08:30.899Z,13.61
2023-09-23T04:11:05.086Z,13.77
2023-09-23T04:13:35.154Z,13.82
2023-09-23T04:16:06.950Z,13.85
2023-09-23T04:18:36.755Z,13.77
2023-09-23T04:21:06.979Z,13.81
2023-09-23T04:23:36.917Z,13.89
2023-09-23T04:26:09.742Z,13.80
2023-09-23T04:28:40.280Z,13.79
2023-09-23T04:31:10.437Z,13.75
2023-09-23T04:33:40.895Z,13.90
2023-09-23T04:36:12.609Z,13.82
2023-09-23T04:38:45.137Z,13.70
2023-09-23T04:41:17.790Z,13.69
2023-09-23T04:43:49.195Z,13.76
2023-09-23T04:46:19.246Z,13.79
2023-09-23T04:48:49.214Z,13.82
2023-09-23T04:51:18.890Z,13.74
2023-09-23T04:53:48.615Z,13.82
2023-09-23T04:56:20.912Z,13.81
2023-09-23T04:58:51.126Z,13.90
2023-09-23T05:01:20.940Z,13.84
2023-09-23T05:03:50.643Z,13.82
2023-09-23T05:06:20.393Z,13.85
2023-09-23T05:08:50.105Z,13.73
2023-09-23T05:11:22.376Z,13.57
2023-09-23T05:13:52.517Z,13.64
2023-09-23T05:16:23.951Z,13.69
2023-09-23T05:18:54.773Z,13.43
2023-09-23T05:21:25.726Z,13.41
2023-09-23T05:23:57.468Z,13.42
2023-09-23T05:26:29.849Z,13.37
2023-09-23T05:28:59.666Z,13.29
2023-09-23T05:31:30.280Z,13.21
2023-09-23T05:34:00.113Z,13.18
2023-09-23T05:36:29.888Z,13.22
2023-09-23T05:39:00.352Z,13.20
2023-09-23T05:41:32.794Z,13.23
2023-09-23T05:44:02.608Z,13.19
2023-09-23T05:46:32.846Z,13.15
2023-09-23T05:49:04.168Z,13.14
2023-09-23T05:51:34.816Z,13.27
2023-09-23T05:54:04.552Z,13.20
2023-09-23T05:56:36.762Z,13.12
2023-09-23T05:59:09.505Z,13.04
2023-09-23T06:01:42.240Z,12.98
2023-09-23T06:04:12.707Z,13.06
2023-09-23T06:06:42.373Z,13.12
2023-09-23T06:09:12.215Z,13.24
2023-09-23T06:11:44.794Z,13.32
2023-09-23T06:14:14.639Z,13.50
2023-09-23T06:16:45.531Z,13.67
2023-09-23T06:19:15.372Z,13.92
2023-09-23T06:21:45.050Z,14.07
2023-09-23T06:24:15.073Z,14.02
2023-09-23T06:26:47.324Z,14.15
2023-09-23T06:29:17.775Z,14.41
2023-09-23T06:31:47.455Z,14.29
2023-09-23T06:34:18.301Z,14.34
2023-09-23T06:36:48.086Z,14.53
2023-09-23T06:39:17.785Z,14.53
2023-09-23T06:41:50.201Z,14.75
2023-09-23T06:44:20.062Z,14.80
2023-09-23T06:46:51.329Z,14.94
2023-09-23T06:49:21.423Z,14.98
2023-09-23T06:51:51.102Z,15.03
2023-09-23T06:54:20.934Z,15.23
2023-09-23T06:56:53.394Z,15.00
2023-09-23T06:59:23.364Z,15.21
2023-09-23T07:01:53.276Z,15.69
2023-09-23T07:04:23.195Z,15.69
2023-09-23T07:06:52.922Z,15.72
2023-09-23T07:09:22.649Z,15.89
2023-09-23T07:11:55.148Z,16.29
2023-09-23T07:14:25.081Z,16.48
2023-09-23T07:16:54.879Z,16.60
2023-09-23T07:19:24.706Z,16.25
2023-09-23T07:21:54.445Z,16.63
2023-09-23T07:24:24.382Z,16.69
2023-09-23T07:26:58.042Z,16.80
2023-09-23T07:29:28.145Z,16.53
2023-09-23T07:31:59.799Z,16.75
2023-09-23T07:34:29.564Z,16.81
2023-09-23T07:36:59.245Z,16.96
2023-09-23T07:39:29.506Z,16.77
2023-09-23T07:42:01.827Z,16.77
2023-09-23T07:44:31.540Z,17.08
2023-09-23T07:47:01.287Z,16.96
2023-09-23T07:49:31.067Z,17.11
2023-09-23T07:52:00.717Z,16.92
2023-09-23T07:54:30.516Z,17.34
2023-09-23T07:57:02.857Z,17.43
2023-09-23T07:59:32.782Z,17.72
2023-09-23T08:02:02.625Z,17.62
2023-09-23T08:04:32.974Z,18.32
2023-09-23T08:07:02.642Z,18.44
2023-09-23T08:09:33.009Z,18.89
2023-09-23T08:12:05.386Z,18.40
2023-09-23T08:14:35.174Z,18.83
2023-09-23T08:17:04.936Z,19.10
2023-09-23T08:19:34.748Z,18.60
2023-09-23T08:22:04.660Z,18.65
2023-09-23T08:24:34.512Z,18.98
2023-09-23T08:27:06.842Z,18.92
2023-09-23T08:29:37.677Z,18.70
2023-09-23T08:32:08.089Z,19.15
2023-09-23T08:34:37.898Z,19.44
2023-09-23T08:37:07.546Z,19.00
2023-09-23T08:39:37.415Z,18.88
2023-09-23T08:42:09.752Z,18.58
2023-09-23T08:44:40.186Z,19.49
2023-09-23T08:47:09.916Z,18.80
2023-09-23T08:49:41.437Z,18.72
2023-09-23T08:52:12.087Z,18.43
2023-09-23T08:54:42.932Z,18.46
2023-09-23T08:57:15.591Z,19.58
2023-09-23T08:59:45.446Z,19.89
2023-09-23T09:02:19.816Z,20.31
2023-09-23T09:04:49.611Z,19.70
2023-09-23T09:07:19.463Z,19.49
2023-09-23T09:09:49.227Z,19.79
2023-09-23T09:12:21.505Z,19.57
2023-09-23T09:14:54.715Z,20.00
2023-09-23T09:17:24.539Z,19.69
2023-09-23T09:19:54.247Z,19.31
2023-09-23T09:22:24.004Z,20.01
2023-09-23T09:24:53.888Z,20.09
2023-09-23T09:27:26.249Z,20.71
2023-09-23T09:30:07.129Z,20.37
2023-09-23T09:32:45.758Z,20.23
2023-09-23T09:35:19.150Z,19.62
2023-09-23T09:37:57.824Z,19.42
2023-09-23T09:40:33.860Z,19.43
2023-09-23T09:43:08.003Z,19.65
2023-09-23T09:45:41.916Z,20.38
2023-09-23T09:48:14.308Z,19.98
2023-09-23T09:50:44.886Z,19.09
2023-09-23T09:53:14.608Z,19.15
2023-09-23T09:55:45.904Z,19.21
2023-09-23T09:58:18.310Z,18.88
2023-09-23T10:00:51.995Z,18.57
2023-09-23T10:03:29.653Z,18.83
2023-09-23T10:06:03.435Z,19.18
2023-09-23T10:08:40.233Z,19.95
2023-09-23T10:11:13.278Z,20.61
2023-09-23T10:13:47.286Z,19.54
2023-09-23T10:16:20.765Z,19.50
2023-09-23T10:18:58.882Z,19.12
2023-09-23T10:21:31.606Z,19.09
2023-09-23T10:24:04.385Z,19.49
2023-09-23T10:26:34.360Z,19.61
2023-09-23T10:29:07.969Z,19.71
2023-09-23T10:31:38.622Z,19.45
2023-09-23T10:34:10.012Z,19.61
2023-09-23T10:36:40.092Z,19.32
2023-09-23T10:39:19.024Z,19.39
2023-09-23T10:41:48.781Z,19.74
2023-09-23T10:44:26.881Z,18.97
2023-09-23T10:46:57.413Z,19.41
2023-09-23T10:49:28.060Z,20.18
2023-09-23T10:51:58.650Z,21.06
2023-09-23T10:54:29.247Z,21.29
2023-09-23T10:57:01.382Z,21.93
2023-09-23T10:59:34.771Z,22.36
2023-09-23T11:02:08.130Z,22.75
2023-09-23T11:04:38.178Z,22.75
2023-09-23T11:07:09.140Z,22.87
2023-09-23T11:09:39.371Z,23.64
2023-09-23T11:12:14.218Z,22.80
2023-09-23T11:14:49.457Z,21.33
2023-09-23T11:17:26.905Z,20.82
2023-09-23T11:19:58.100Z,20.71
2023-09-23T11:22:29.137Z,20.52
2023-09-23T11:24:59.973Z,19.42
2023-09-23T11:27:31.788Z,19.36
2023-09-23T11:30:06.309Z,19.52
2023-09-23T11:32:36.543Z,20.42
2023-09-23T11:35:07.161Z,19.48
2023-09-23T11:37:36.870Z,19.73
2023-09-23T11:40:07.927Z,20.33
2023-09-23T11:42:37.731Z,20.88
2023-09-23T11:45:11.242Z,21.06
2023-09-23T11:47:41.054Z,20.10
2023-09-23T11:50:11.438Z,20.40
2023-09-23T11:52:41.166Z,21.57
2023-09-23T11:55:13.601Z,22.06
2023-09-23T11:57:43.806Z,21.77
2023-09-23T12:00:17.658Z,20.23
2023-09-23T12:02:49.397Z,20.28
2023-09-23T12:05:22.222Z,19.93
2023-09-23T12:07:52.239Z,19.69
2023-09-23T12:10:21.979Z,19.41
2023-09-23T12:12:51.718Z,19.74
2023-09-23T12:15:25.083Z,19.42
2023-09-23T12:17:54.982Z,19.72
2023-09-23T12:20:25.293Z,19.75
2023-09-23T12:22:55.285Z,20.44
2023-09-23T12:25:24.927Z,20.76
2023-09-23T12:27:54.786Z,20.16
2023-09-23T12:30:27.266Z,20.01
2023-09-23T12:32:57.004Z,19.84
2023-09-23T12:35:26.648Z,20.35
2023-09-23T12:37:56.234Z,19.65
2023-09-23T12:40:26.196Z,20.17
2023-09-23T12:42:56.207Z,20.14
2023-09-23T12:45:28.633Z,19.85
2023-09-23T12:47:58.620Z,19.46
2023-09-23T12:50:28.507Z,19.23
2023-09-23T12:52:58.312Z,19.63
2023-09-23T12:55:28.110Z,19.81
2023-09-23T12:57:57.867Z,19.78
2023-09-23T13:00:30.163Z,19.51
2023-09-23T13:03:00.112Z,19.51
2023-09-23T13:05:29.853Z,19.56
2023-09-23T13:07:59.680Z,19.01
2023-09-23T13:10:29.488Z,19.94
2023-09-23T13:12:59.249Z,20.12
2023-09-23T13:15:31.753Z,20.41
2023-09-23T13:18:02.553Z,20.85
2023-09-23T13:20:32.511Z,20.77
2023-09-23T13:23:03.945Z,20.40
2023-09-23T13:25:33.984Z,19.89
2023-09-23T13:28:03.682Z,20.08
2023-09-23T13:30:36.224Z,19.78
2023-09-23T13:33:10.259Z,19.96
2023-09-23T13:35:40.747Z,19.69
2023-09-23T13:38:10.642Z,19.53
2023-09-23T13:40:40.390Z,19.29
2023-09-23T13:43:10.120Z,19.38
2023-09-23T13:45:42.380Z,19.15
2023-09-23T13:48:12.921Z,19.39
2023-09-23T13:50:42.779Z,19.14
2023-09-23T13:53:12.487Z,19.18
2023-09-23T13:55:42.179Z,19.12
2023-09-23T13:58:12.359Z,19.37
2023-09-23T14:00:44.642Z,19.50
2023-09-23T14:03:14.636Z,19.41
2023-09-23T14:05:44.301Z,19.38
2023-09-23T14:08:14.145Z,19.14
2023-09-23T14:10:43.855Z,19.01
2023-09-23T14:13:13.617Z,18.93
2023-09-23T14:15:46.611Z,18.87
2023-09-23T14:18:16.577Z,18.51
2023-09-23T14:20:46.827Z,18.56
2023-09-23T14:23:16.594Z,18.53
2023-09-23T14:25:46.391Z,18.61
2023-09-23T14:28:16.075Z,18.82
2023-09-23T14:30:48.766Z,18.55
2023-09-23T14:33:18.703Z,18.56
2023-09-23T14:35:48.420Z,18.76
2023-09-23T14:38:18.392Z,18.86
2023-09-23T14:40:48.230Z,18.85
2023-09-23T14:43:17.925Z,18.91
2023-09-23T14:45:50.230Z,18.98
2023-09-23T14:48:20.559Z,18.99
2023-09-23T14:50:50.521Z,18.69
2023-09-23T14:53:20.576Z,18.64
2023-09-23T14:55:50.315Z,18.68
2023-09-23T14:58:20.395Z,18.72
2023-09-23T15:00:52.770Z,18.94
2023-09-23T15:03:22.742Z,18.80
2023-09-23T15:05:52.584Z,18.80
2023-09-23T15:08:22.418Z,18.80
2023-09-23T15:10:53.713Z,18.74
2023-09-23T15:13:24.022Z,18.76
2023-09-23T15:15:56.899Z,18.61
2023-09-23T15:18:26.699Z,18.64
2023-09-23T15:20:56.609Z,18.61
2023-09-23T15:23:27.124Z,18.53
2023-09-23T15:25:56.880Z,18.52
2023-09-23T15:28:26.692Z,18.66
2023-09-23T15:30:59.675Z,18.55
2023-09-23T15:33:29.637Z,18.63
2023-09-23T15:35:59.324Z,18.50
2023-09-23T15:38:29.006Z,18.43
2023-09-23T15:41:00.057Z,18.48
2023-09-23T15:43:30.080Z,18.30
2023-09-23T15:46:03.668Z,18.37
2023-09-23T15:48:33.665Z,18.38
2023-09-23T15:51:12.031Z,18.30
2023-09-23T15:53:42.362Z,18.33
2023-09-23T15:56:12.186Z,18.22
2023-09-23T15:58:42.741Z,18.18
2023-09-23T16:01:15.383Z,18.16
2023-09-23T16:03:45.258Z,17.99
2023-09-23T16:06:15.046Z,17.92
2023-09-23T16:08:44.822Z,18.15
2023-09-23T16:11:15.944Z,18.26
2023-09-23T16:13:46.072Z,18.15
2023-09-23T16:16:18.782Z,18.00
2023-09-23T16:18:48.791Z,18.02
2023-09-23T16:21:18.734Z,17.93
2023-09-23T16:23:48.478Z,18.19
2023-09-23T16:26:21.104Z,17.97
2023-09-23T16:28:51.146Z,18.13
2023-09-23T16:31:23.387Z,17.93
2023-09-23T16:33:54.181Z,17.78
2023-09-23T16:36:24.957Z,17.66
2023-09-23T16:38:54.701Z,17.80
2023-09-23T16:41:25.164Z,17.69
2023-09-23T16:43:54.859Z,17.79
2023-09-23T16:46:27.649Z,17.83
2023-09-23T16:48:57.676Z,17.61
2023-09-23T16:51:27.260Z,17.58
2023-09-23T16:53:57.682Z,17.70
2023-09-23T16:56:27.370Z,17.79
2023-09-23T16:58:57.101Z,17.57
2023-09-23T17:01:29.439Z,17.68
2023-09-23T17:03:59.164Z,17.54
2023-09-23T17:06:28.819Z,17.60
2023-09-23T17:08:58.529Z,17.49
2023-09-23T17:11:28.382Z,17.62
2023-09-23T17:13:58.118Z,17.63
2023-09-23T17:16:30.370Z,17.54
2023-09-23T17:19:00.266Z,17.43
2023-09-23T17:21:29.875Z,17.51
2023-09-23T17:23:59.544Z,17.52
2023-09-23T17:26:29.242Z,17.41
2023-09-23T17:29:00.728Z,17.37
2023-09-23T17:31:33.286Z,17.46
2023-09-23T17:34:03.300Z,17.45
2023-09-23T17:36:33.016Z,17.51
2023-09-23T17:39:04.068Z,17.46
2023-09-23T17:41:34.153Z,17.44
2023-09-23T17:44:04.159Z,17.61
2023-09-23T17:46:36.768Z,17.53
2023-09-23T17:49:06.987Z,17.60
2023-09-23T17:51:36.829Z,17.39
2023-09-23T17:54:06.862Z,17.45
2023-09-23T17:56:36.554Z,17.37
2023-09-23T17:59:07.359Z,17.29
2023-09-23T18:01:39.841Z,17.20
2023-09-23T18:04:11.559Z,17.38
2023-09-23T18:06:41.626Z,17.31
2023-09-23T18:09:12.963Z,17.14
2023-09-23T18:11:44.866Z,17.19
2023-09-23T18:14:14.848Z,17.16
2023-09-23T18:16:47.064Z,17.16
2023-09-23T18:19:17.453Z,17.21
2023-09-23T18:21:47.536Z,17.17
2023-09-23T18:24:17.318Z,17.25
2023-09-23T18:26:48.009Z,17.43
2023-09-23T18:29:17.904Z,17.28
2023-09-23T18:31:52.291Z,17.22
2023-09-23T18:34:22.101Z,17.27
2023-09-23T18:36:51.867Z,17.28
2023-09-23T18:39:21.562Z,17.04
2023-09-23T18:41:51.302Z,17.14
2023-09-23T18:44:21.868Z,17.11
2023-09-23T18:46:54.229Z,17.12
2023-09-23T18:49:24.046Z,16.83
2023-09-23T18:51:53.727Z,16.97
2023-09-23T18:54:23.409Z,16.87
2023-09-23T18:56:53.359Z,16.71
2023-09-23T18:59:23.031Z,16.70
2023-09-23T19:01:56.462Z,16.74
2023-09-23T19:04:26.857Z,16.79
2023-09-23T19:06:57.034Z,16.77
2023-09-23T19:09:28.103Z,16.76
2023-09-23T19:11:58.032Z,16.71
2023-09-23T19:14:27.870Z,16.70
2023-09-23T19:17:00.318Z,16.62
2023-09-23T19:19:30.138Z,16.64
2023-09-23T19:21:59.818Z,16.81
2023-09-23T19:24:29.512Z,16.65
2023-09-23T19:26:59.181Z,16.76
2023-09-23T19:29:29.132Z,16.62
2023-09-23T19:32:01.378Z,16.64
2023-09-23T19:34:31.724Z,16.58
2023-09-23T19:37:01.699Z,16.79
2023-09-23T19:39:32.622Z,16.60
2023-09-23T19:42:02.667Z,16.57
2023-09-23T19:44:32.479Z,16.52
2023-09-23T19:47:05.795Z,16.49
2023-09-23T19:49:36.027Z,16.32
2023-09-23T19:52:08.768Z,16.47
2023-09-23T19:54:38.548Z,16.60
2023-09-23T19:57:08.207Z,16.53
2023-09-23T19:59:38.098Z,16.57
2023-09-23T20:02:12.120Z,16.47
2023-09-23T20:04:46.328Z,16.45
2023-09-23T20:07:17.350Z,16.46
2023-09-23T20:09:47.231Z,16.53
2023-09-23T20:12:16.858Z,16.59
2023-09-23T20:14:47.382Z,16.65
2023-09-23T20:17:20.087Z,16.56
2023-09-23T20:19:49.976Z,16.66
2023-09-23T20:22:19.631Z,16.47
2023-09-23T20:24:50.251Z,16.49
2023-09-23T20:27:20.410Z,16.30
2023-09-23T20:30:05.439Z,16.29
2023-09-23T20:32:39.943Z,16.47
2023-09-23T20:35:12.539Z,16.56
2023-09-23T20:37:43.698Z,16.24
2023-09-23T20:40:17.383Z,16.37
2023-09-23T20:42:47.689Z,16.30
2023-09-23T20:45:18.929Z,16.26
2023-09-23T20:47:51.468Z,16.17
2023-09-23T20:50:21.608Z,16.21
2023-09-23T20:52:51.313Z,16.09
2023-09-23T20:55:21.072Z,16.21
2023-09-23T20:57:50.971Z,16.17
2023-09-23T21:00:22.904Z,15.99
2023-09-23T21:02:55.393Z,16.18
2023-09-23T21:05:25.630Z,15.98
2023-09-23T21:07:55.738Z,16.01
2023-09-23T21:10:25.880Z,16.06
2023-09-23T21:12:56.470Z,15.86
2023-09-23T21:15:26.521Z,15.91
2023-09-23T21:18:00.647Z,15.84
2023-09-23T21:20:30.680Z,15.88
2023-09-23T21:23:02.739Z,15.85
2023-09-23T21:25:33.309Z,15.76
2023-09-23T21:28:03.092Z,15.81
2023-09-23T21:30:32.756Z,15.77
2023-09-23T21:33:05.132Z,15.55
2023-09-23T21:35:35.610Z,15.69
2023-09-23T21:38:05.928Z,15.52
2023-09-23T21:40:35.718Z,15.62
2023-09-23T21:43:05.418Z,15.64
2023-09-23T21:45:35.317Z,15.56
2023-09-23T21:48:08.308Z,15.44
2023-09-23T21:50:38.303Z,15.41
2023-09-23T21:53:08.414Z,15.50
2023-09-23T21:55:38.428Z,15.37
2023-09-23T21:58:09.008Z,15.53
2023-09-23T22:00:38.946Z,15.51
2023-09-23T22:03:12.584Z,15.46
2023-09-23T22:05:42.448Z,15.31
2023-09-23T22:08:12.090Z,15.22
2023-09-23T22:10:45.049Z,15.41
2023-09-23T22:13:19.087Z,15.01
2023-09-23T22:15:49.986Z,15.15
2023-09-23T22:18:23.973Z,15.11
2023-09-23T22:20:54.158Z,15.03
2023-09-23T22:23:24.024Z,15.07
2023-09-23T22:25:54.613Z,14.91
2023-09-23T22:28:24.238Z,14.84
2023-09-23T22:30:53.994Z,14.84
2023-09-23T22:33:27.069Z,14.75
2023-09-23T22:35:56.970Z,14.98
2023-09-23T22:38:27.038Z,14.73
2023-09-23T22:40:56.945Z,14.66
2023-09-23T22:43:27.454Z,14.90
2023-09-23T22:45:57.402Z,15.08
2023-09-23T22:48:29.971Z,15.03
2023-09-23T22:50:59.752Z,14.93
2023-09-23T22:53:29.397Z,14.95
2023-09-23T22:56:00.157Z,14.72
2023-09-23T22:58:30.024Z,14.71
2023-09-23T23:00:59.645Z,14.96
2023-09-23T23:03:32.692Z,14.94
2023-09-23T23:06:06.527Z,14.96
2023-09-23T23:08:37.518Z,14.88
2023-09-23T23:11:10.407Z,14.93
2023-09-23T23:13:42.325Z,14.92
2023-09-23T23:16:13.668Z,14.86
2023-09-23T23:18:46.339Z,14.84
2023-09-23T23:21:16.192Z,14.86
2023-09-23T23:23:45.901Z,14.95
2023-09-23T23:26:16.609Z,14.82
2023-09-23T23:28:46.423Z,14.80
2023-09-23T23:31:16.132Z,14.93
2023-09-23T23:33:49.027Z,14.93
2023-09-23T23:36:19.117Z,14.77
2023-09-23T23:38:48.821Z,14.69
2023-09-23T23:41:19.134Z,14.65
2023-09-23T23:43:49.886Z,14.78
2023-09-23T23:46:20.789Z,14.72
2023-09-23T23:48:53.479Z,14.64
2023-09-23T23:51:25.597Z,14.59
2023-09-23T23:53:55.574Z,14.57
2023-09-23T23:56:24.292Z,14.37
2023-09-23T23:58:55.309Z,14.61
